createdAt,value
2022-12-20T00:01:33.207Z,5.43
2022-12-20T00:04:03.601Z,5.20
2022-12-20T00:06:34.649Z,5.67
2022-12-20T00:09:03.920Z,5.67
2022-12-20T00:11:32.418Z,6.13
2022-12-20T00:14:00.980Z,5.97
2022-12-20T00:16:30.339Z,5.13
2022-12-20T00:19:00.576Z,5.43
2022-12-20T00:21:30.170Z,5.40
2022-12-20T00:24:00.838Z,5.17
2022-12-20T00:26:30.838Z,5.40
2022-12-20T00:29:00.052Z,5.07
2022-12-20T00:31:30.457Z,5.00
2022-12-20T00:34:00.339Z,5.13
2022-12-20T00:36:31.329Z,5.00
2022-12-20T00:39:01.633Z,5.07
2022-12-20T00:41:31.527Z,4.67
2022-12-20T00:44:00.149Z,4.83
2022-12-20T00:46:28.473Z,4.63
2022-12-20T00:48:58.044Z,5.40
2022-12-20T00:51:27.884Z,4.20
2022-12-20T00:53:56.574Z,5.43
2022-12-20T00:56:26.223Z,4.63
2022-12-20T00:58:55.153Z,4.90
2022-12-20T01:01:26.081Z,5.13
2022-12-20T01:03:55.191Z,5.60
2022-12-20T01:06:25.024Z,5.00
2022-12-20T01:08:53.851Z,5.03
2022-12-20T01:11:23.335Z,4.93
2022-12-20T01:13:55.952Z,5.20
2022-12-20T01:16:26.200Z,5.33
2022-12-20T01:18:55.027Z,4.97
2022-12-20T01:21:25.871Z,4.47
2022-12-20T01:23:54.467Z,5.07
2022-12-20T01:26:25.687Z,5.07
2022-12-20T01:28:56.485Z,5.00
2022-12-20T01:31:25.457Z,5.13
2022-12-20T01:33:54.065Z,5.23
2022-12-20T01:36:25.904Z,5.23
2022-12-20T01:38:58.474Z,5.20
2022-12-20T01:41:27.977Z,4.90
2022-12-20T01:43:59.244Z,5.00
2022-12-20T01:46:28.707Z,4.72
2022-12-20T01:49:01.820Z,5.32
2022-12-20T01:51:33.513Z,4.80
2022-12-20T01:54:08.282Z,4.72
2022-12-20T01:56:37.343Z,4.43
2022-12-20T01:59:07.640Z,5.10
2022-12-20T02:01:36.167Z,4.93
2022-12-20T02:04:04.871Z,4.30
2022-12-20T02:06:33.426Z,4.22
2022-12-20T02:09:03.771Z,4.70
2022-12-20T02:11:49.310Z,2.90
2022-12-20T02:14:30.773Z,4.70
2022-12-20T02:17:11.041Z,5.03
2022-12-20T02:20:05.144Z,4.30
2022-12-20T02:22:46.395Z,4.30
2022-12-20T02:25:42.805Z,4.65
2022-12-20T02:28:27.668Z,4.18
2022-12-20T02:30:59.270Z,4.78
2022-12-20T02:33:29.567Z,3.90
2022-12-20T02:35:57.770Z,4.27
2022-12-20T02:38:30.565Z,4.73
2022-12-20T02:41:02.520Z,5.00
2022-12-20T02:43:51.041Z,4.80
2022-12-20T02:46:22.293Z,4.38
2022-12-20T02:48:53.051Z,4.90
2022-12-20T02:51:23.180Z,4.55
2022-12-20T02:53:51.896Z,4.25
2022-12-20T02:56:28.386Z,4.60
2022-12-20T02:59:02.384Z,4.88
2022-12-20T03:01:35.654Z,4.45
2022-12-20T03:04:05.951Z,4.27
2022-12-20T03:06:34.174Z,4.40
2022-12-20T03:09:02.560Z,4.72
2022-12-20T03:11:31.084Z,4.77
2022-12-20T03:13:59.396Z,4.70
2022-12-20T03:16:27.852Z,5.00
2022-12-20T03:18:57.483Z,5.32
2022-12-20T03:21:25.748Z,5.40
2022-12-20T03:23:54.184Z,5.17
2022-12-20T03:26:22.593Z,5.53
2022-12-20T03:28:51.138Z,5.00
2022-12-20T03:31:19.543Z,4.67
2022-12-20T03:33:48.661Z,4.60
2022-12-20T03:36:23.458Z,4.13
2022-12-20T03:38:51.874Z,4.40
2022-12-20T03:41:21.397Z,4.72
2022-12-20T03:43:50.121Z,3.97
2022-12-20T03:46:18.683Z,3.97
2022-12-20T03:48:47.051Z,4.53
2022-12-20T03:51:15.259Z,5.03
2022-12-20T03:53:44.885Z,4.72
2022-12-20T03:56:13.537Z,4.40
2022-12-20T03:58:41.913Z,4.18
2022-12-20T04:01:24.758Z,4.20
2022-12-20T04:03:53.758Z,4.73
2022-12-20T04:06:22.752Z,4.70
2022-12-20T04:08:52.361Z,4.63
2022-12-20T04:11:20.706Z,4.57
2022-12-20T04:13:49.995Z,4.17
2022-12-20T04:16:21.397Z,4.40
2022-12-20T04:18:50.010Z,4.80
2022-12-20T04:21:23.829Z,5.00
2022-12-20T04:23:53.536Z,4.70
2022-12-20T04:26:22.543Z,4.40
2022-12-20T04:28:51.026Z,4.68
2022-12-20T04:31:23.767Z,4.13
2022-12-20T04:33:53.100Z,4.80
2022-12-20T04:36:21.528Z,4.60
2022-12-20T04:38:49.810Z,4.20
2022-12-20T04:41:23.433Z,4.90
2022-12-20T04:43:53.029Z,5.28
2022-12-20T04:46:22.506Z,4.97
2022-12-20T04:48:59.542Z,5.40
2022-12-20T04:51:28.714Z,4.30
2022-12-20T04:53:56.423Z,4.90
2022-12-20T04:56:28.351Z,4.57
2022-12-20T04:58:58.299Z,5.07
2022-12-20T05:01:27.376Z,5.22
2022-12-20T05:03:56.313Z,4.70
2022-12-20T05:06:24.739Z,4.45
2022-12-20T05:08:54.930Z,4.50
2022-12-20T05:11:23.666Z,5.32
2022-12-20T05:13:53.432Z,4.53
2022-12-20T05:16:22.423Z,4.90
2022-12-20T05:18:50.918Z,4.43
2022-12-20T05:21:36.966Z,4.60
2022-12-20T05:24:23.124Z,4.50
2022-12-20T05:26:51.555Z,4.75
2022-12-20T05:29:21.495Z,4.70
2022-12-20T05:31:49.730Z,4.63
2022-12-20T05:34:18.029Z,5.10
2022-12-20T05:36:46.268Z,4.50
2022-12-20T05:39:14.776Z,4.30
2022-12-20T05:41:43.452Z,5.00
2022-12-20T05:44:11.820Z,4.70
2022-12-20T05:46:41.687Z,4.35
2022-12-20T05:49:10.169Z,4.72
2022-12-20T05:51:38.440Z,4.28
2022-12-20T05:54:06.987Z,4.43
2022-12-20T05:56:35.329Z,4.32
2022-12-20T05:59:03.627Z,4.60
2022-12-20T06:01:32.117Z,4.30
2022-12-20T06:04:01.955Z,4.18
2022-12-20T06:06:30.397Z,4.25
2022-12-20T06:08:58.685Z,4.10
2022-12-20T06:11:30.173Z,4.35
2022-12-20T06:13:59.305Z,4.13
2022-12-20T06:16:28.784Z,4.35
2022-12-20T06:18:57.510Z,4.07
2022-12-20T06:21:28.600Z,4.67
2022-12-20T06:23:56.953Z,4.00
2022-12-20T06:26:25.413Z,4.18
2022-12-20T06:28:56.721Z,4.47
2022-12-20T06:31:25.548Z,3.93
2022-12-20T06:33:53.952Z,4.40
2022-12-20T06:36:22.370Z,4.95
2022-12-20T06:38:51.981Z,5.00
2022-12-20T06:41:20.519Z,4.43
2022-12-20T06:43:48.974Z,4.53
2022-12-20T06:46:17.366Z,4.65
2022-12-20T06:48:45.932Z,4.37
2022-12-20T06:51:14.615Z,4.27
2022-12-20T06:53:43.033Z,4.15
2022-12-20T06:56:12.695Z,5.07
2022-12-20T06:58:40.931Z,4.32
2022-12-20T07:01:09.405Z,4.65
2022-12-20T07:03:37.981Z,4.50
2022-12-20T07:06:06.661Z,3.60
2022-12-20T07:08:35.171Z,4.00
2022-12-20T07:11:07.040Z,4.32
2022-12-20T07:13:37.311Z,4.45
2022-12-20T07:16:06.150Z,4.32
2022-12-20T07:18:35.620Z,3.88
2022-12-20T07:21:05.417Z,3.85
2022-12-20T07:23:34.277Z,4.22
2022-12-20T07:26:04.071Z,4.10
2022-12-20T07:28:32.693Z,4.00
2022-12-20T07:31:04.289Z,3.58
2022-12-20T07:33:32.801Z,3.80
2022-12-20T07:36:04.405Z,3.70
2022-12-20T07:38:32.784Z,3.65
2022-12-20T07:41:01.346Z,3.35
2022-12-20T07:43:29.776Z,3.70
2022-12-20T07:45:58.532Z,3.85
2022-12-20T07:48:28.248Z,4.00
2022-12-20T07:51:02.974Z,3.85
2022-12-20T07:53:32.877Z,3.53
2022-12-20T07:56:02.540Z,3.65
2022-12-20T07:58:32.172Z,3.22
2022-12-20T08:01:00.641Z,4.03
2022-12-20T08:03:34.052Z,3.78
2022-12-20T08:06:06.417Z,3.88
2022-12-20T08:08:36.817Z,4.10
2022-12-20T08:11:05.813Z,3.90
2022-12-20T08:13:36.336Z,4.10
2022-12-20T08:16:08.536Z,3.63
2022-12-20T08:18:38.059Z,3.70
2022-12-20T08:21:06.661Z,4.05
2022-12-20T08:23:35.034Z,3.65
2022-12-20T08:26:04.127Z,3.58
2022-12-20T08:28:32.632Z,3.33
2022-12-20T08:31:04.118Z,3.30
2022-12-20T08:33:33.062Z,3.60
2022-12-20T08:36:05.243Z,3.45
2022-12-20T08:38:34.287Z,3.63
2022-12-20T08:41:03.845Z,3.90
2022-12-20T08:43:32.301Z,3.38
2022-12-20T08:46:01.069Z,4.05
2022-12-20T08:48:29.889Z,3.92
2022-12-20T08:50:59.184Z,3.75
2022-12-20T08:53:29.426Z,3.92
2022-12-20T08:56:05.317Z,4.15
2022-12-20T08:58:33.741Z,3.40
2022-12-20T09:01:06.721Z,4.60
2022-12-20T09:03:36.645Z,5.43
2022-12-20T09:06:07.992Z,4.75
2022-12-20T09:08:39.130Z,4.13
2022-12-20T09:11:08.876Z,4.35
2022-12-20T09:13:43.307Z,4.00
2022-12-20T09:16:14.443Z,4.05
2022-12-20T09:18:43.149Z,4.50
2022-12-20T09:21:12.289Z,4.28
2022-12-20T09:23:42.893Z,4.15
2022-12-20T09:26:14.022Z,3.10
2022-12-20T09:28:42.820Z,3.45
2022-12-20T09:31:14.593Z,3.88
2022-12-20T09:33:43.386Z,3.78
2022-12-20T09:36:13.559Z,3.20
2022-12-20T09:38:43.333Z,3.53
2022-12-20T09:41:26.503Z,3.17
2022-12-20T09:43:56.126Z,3.72
2022-12-20T09:46:25.739Z,3.83
2022-12-20T09:48:54.753Z,3.70
2022-12-20T09:51:49.923Z,3.70
2022-12-20T09:54:32.133Z,4.00
2022-12-20T09:57:06.693Z,5.50
2022-12-20T09:59:40.359Z,4.67
2022-12-20T10:02:44.462Z,4.55
2022-12-20T10:05:00.786Z,4.10
2022-12-20T10:07:36.946Z,4.68
2022-12-20T10:10:26.934Z,5.25
2022-12-20T10:13:12.565Z,4.18
2022-12-20T10:15:47.284Z,4.20
2022-12-20T10:18:31.193Z,4.57
2022-12-20T10:21:05.655Z,4.25
2022-12-20T10:23:41.990Z,4.97
2022-12-20T10:26:13.178Z,4.20
2022-12-20T10:28:42.242Z,5.30
2022-12-20T10:31:16.309Z,4.47
2022-12-20T10:33:45.872Z,4.40
2022-12-20T10:36:22.943Z,4.40
2022-12-20T10:38:53.392Z,5.07
2022-12-20T10:41:24.801Z,5.10
2022-12-20T10:43:57.524Z,5.80
2022-12-20T10:46:37.961Z,6.13
2022-12-20T10:49:31.206Z,6.37
2022-12-20T10:52:01.819Z,6.33
2022-12-20T10:54:35.724Z,6.30
2022-12-20T10:57:17.755Z,5.83
2022-12-20T10:59:49.524Z,6.70
2022-12-20T11:02:34.702Z,6.57
2022-12-20T11:05:23.961Z,6.10
2022-12-20T11:10:46.539Z,6.40
2022-12-20T11:13:25.709Z,8.37
2022-12-20T11:15:57.515Z,7.57
2022-12-20T11:18:37.312Z,7.33
2022-12-20T11:21:19.378Z,7.63
2022-12-20T11:23:57.099Z,7.27
2022-12-20T11:26:39.447Z,6.97
2022-12-20T11:29:25.564Z,8.17
2022-12-20T11:32:03.302Z,7.50
2022-12-20T11:34:40.219Z,7.97
2022-12-20T11:37:21.009Z,8.53
2022-12-20T11:40:13.046Z,8.90
2022-12-20T11:42:53.912Z,8.20
2022-12-20T11:45:31.325Z,8.97
2022-12-20T11:48:17.612Z,9.37
2022-12-20T11:50:59.839Z,8.00
2022-12-20T11:53:33.699Z,7.40
2022-12-20T11:56:07.985Z,7.10
2022-12-20T11:58:49.521Z,7.03
2022-12-20T12:01:22.282Z,7.00
2022-12-20T12:04:02.189Z,7.27
2022-12-20T12:06:34.690Z,6.93
2022-12-20T12:09:22.086Z,6.83
2022-12-20T12:12:06.750Z,6.30
2022-12-20T12:14:46.790Z,6.17
2022-12-20T12:17:25.408Z,6.47
2022-12-20T12:19:57.805Z,6.30
2022-12-20T12:22:32.920Z,6.53
2022-12-20T12:25:05.722Z,7.00
2022-12-20T12:27:35.323Z,7.77
2022-12-20T12:30:03.692Z,7.13
2022-12-20T12:32:44.144Z,7.13
2022-12-20T12:35:42.902Z,7.50
2022-12-20T12:38:35.211Z,8.57
2022-12-20T12:41:30.167Z,9.93
2022-12-20T12:44:06.584Z,9.80
2022-12-20T12:46:37.110Z,8.57
2022-12-20T12:49:13.261Z,8.80
2022-12-20T12:51:45.290Z,8.20
2022-12-20T12:54:20.601Z,8.97
2022-12-20T12:56:50.183Z,8.97
2022-12-20T12:59:43.961Z,9.67
2022-12-20T13:02:43.294Z,10.13
2022-12-20T13:05:33.454Z,9.90
2022-12-20T13:08:03.697Z,9.60
2022-12-20T13:11:01.270Z,9.60
2022-12-20T13:13:29.978Z,6.37
2022-12-20T13:16:14.503Z,6.47
2022-12-20T13:19:00.146Z,7.93
2022-12-20T13:21:40.111Z,8.33
2022-12-20T13:24:37.805Z,8.83
2022-12-20T13:27:17.930Z,10.20
2022-12-20T13:30:22.188Z,9.53
2022-12-20T13:33:26.615Z,10.20
2022-12-20T13:36:33.121Z,10.37
2022-12-20T13:39:05.904Z,10.60
2022-12-20T13:41:40.562Z,10.63
2022-12-20T13:44:37.654Z,11.43
2022-12-20T13:47:18.355Z,11.83
2022-12-20T13:49:47.496Z,12.63
2022-12-20T13:52:28.483Z,12.37
2022-12-20T13:55:00.785Z,13.23
2022-12-20T13:57:32.910Z,14.47
2022-12-20T14:00:07.871Z,15.17
2022-12-20T14:02:43.331Z,14.57
2022-12-20T14:05:20.710Z,15.30
2022-12-20T14:07:53.340Z,15.10
2022-12-20T14:10:26.345Z,15.33
2022-12-20T14:12:55.897Z,14.80
2022-12-20T14:15:27.477Z,14.67
2022-12-20T14:17:56.436Z,15.27
2022-12-20T14:20:28.801Z,14.60
2022-12-20T14:23:05.101Z,15.33
2022-12-20T14:25:39.699Z,15.30
2022-12-20T14:28:23.082Z,14.50
2022-12-20T14:30:56.331Z,15.10
2022-12-20T14:33:32.586Z,15.63
2022-12-20T14:36:09.720Z,16.13
2022-12-20T14:38:38.368Z,15.73
2022-12-20T14:41:35.198Z,15.50
2022-12-20T14:44:14.252Z,16.53
2022-12-20T14:46:49.844Z,15.47
2022-12-20T14:49:25.689Z,15.73
2022-12-20T14:52:06.561Z,14.13
2022-12-20T14:57:29.639Z,16.57
2022-12-20T15:00:02.909Z,17.83
2022-12-20T15:02:41.967Z,18.60
2022-12-20T15:05:38.959Z,18.27
2022-12-20T15:08:19.390Z,18.73
2022-12-20T15:10:57.425Z,18.30
2022-12-20T15:13:31.536Z,17.47
2022-12-20T15:16:01.382Z,17.17
2022-12-20T15:18:29.931Z,18.50
2022-12-20T15:21:04.783Z,17.17
2022-12-20T15:23:34.408Z,19.03
2022-12-20T15:26:02.862Z,21.30
2022-12-20T15:28:33.117Z,20.60
2022-12-20T15:31:01.640Z,20.03
2022-12-20T15:33:33.400Z,20.40
2022-12-20T15:36:01.815Z,19.17
2022-12-20T15:38:54.956Z,19.60
2022-12-20T15:41:22.866Z,18.83
2022-12-20T15:43:56.526Z,18.93
2022-12-20T15:46:25.458Z,19.80
2022-12-20T15:48:54.168Z,18.90
2022-12-20T15:51:28.094Z,18.50
2022-12-20T15:53:56.530Z,19.03
2022-12-20T15:56:27.057Z,18.40
2022-12-20T15:58:57.166Z,19.07
2022-12-20T16:01:28.351Z,27.03
2022-12-20T16:03:56.777Z,24.50
2022-12-20T16:06:25.248Z,25.20
2022-12-20T16:08:54.142Z,24.80
2022-12-20T16:11:24.219Z,24.87
2022-12-20T16:13:52.712Z,26.50
2022-12-20T16:16:24.132Z,26.77
2022-12-20T16:18:53.744Z,28.50
2022-12-20T16:21:24.236Z,29.40
2022-12-20T16:23:53.007Z,26.40
2022-12-20T16:26:22.986Z,26.27
2022-12-20T16:28:52.353Z,24.53
2022-12-20T16:31:26.312Z,24.87
2022-12-20T16:33:55.552Z,25.40
2022-12-20T16:36:24.575Z,25.70
2022-12-20T16:38:53.955Z,26.77
2022-12-20T16:41:25.081Z,26.43
2022-12-20T16:43:53.624Z,24.10
2022-12-20T16:46:26.235Z,29.73
2022-12-20T16:48:54.604Z,33.20
2022-12-20T16:51:27.796Z,34.37
2022-12-20T16:56:47.279Z,46.57
2022-12-20T16:59:19.904Z,38.47
2022-12-20T17:01:54.553Z,43.43
2022-12-20T17:04:23.042Z,39.77
2022-12-20T17:06:51.616Z,40.80
2022-12-20T17:12:10.864Z,43.60
2022-12-20T17:14:39.219Z,42.87
2022-12-20T17:17:08.855Z,46.13
2022-12-20T17:19:37.150Z,47.00
2022-12-20T17:24:51.318Z,40.33
2022-12-20T17:27:19.855Z,39.97
2022-12-20T17:29:48.409Z,38.57
2022-12-20T17:32:22.234Z,40.27
2022-12-20T17:34:50.700Z,41.33
2022-12-20T17:37:19.122Z,44.70
2022-12-20T17:39:47.519Z,55.50
2022-12-20T17:42:16.016Z,53.50
2022-12-20T17:44:46.246Z,50.57
2022-12-20T17:47:17.016Z,43.70
2022-12-20T17:49:46.797Z,46.07
2022-12-20T17:52:15.557Z,44.63
2022-12-20T17:54:44.020Z,46.17
2022-12-20T17:57:16.341Z,42.00
2022-12-20T17:59:45.023Z,39.80
2022-12-20T18:02:22.625Z,40.90
2022-12-20T18:04:52.909Z,38.50
2022-12-20T18:07:21.277Z,38.63
2022-12-20T18:09:50.007Z,37.33
2022-12-20T18:12:18.926Z,34.43
2022-12-20T18:14:49.522Z,33.67
2022-12-20T18:17:18.067Z,34.23
2022-12-20T18:19:46.760Z,32.10
2022-12-20T18:22:17.005Z,34.27
2022-12-20T18:24:45.364Z,33.27
2022-12-20T18:27:13.774Z,33.53
2022-12-20T18:29:42.114Z,33.23
2022-12-20T18:32:10.840Z,32.50
2022-12-20T18:34:39.347Z,32.43
2022-12-20T18:37:07.593Z,32.20
2022-12-20T18:39:37.395Z,34.47
2022-12-20T18:42:05.946Z,36.80
2022-12-20T18:44:36.241Z,35.37
2022-12-20T18:47:05.061Z,35.80
2022-12-20T18:49:33.351Z,36.03
2022-12-20T18:52:02.225Z,37.80
2022-12-20T18:54:31.006Z,38.20
2022-12-20T18:57:00.658Z,35.97
2022-12-20T18:59:29.050Z,37.63
2022-12-20T19:01:57.873Z,73.67
2022-12-20T19:04:26.575Z,68.83
2022-12-20T19:06:55.008Z,64.47
2022-12-20T19:09:23.904Z,70.67
2022-12-20T19:11:56.989Z,52.67
2022-12-20T19:14:27.470Z,46.63
2022-12-20T19:16:56.065Z,49.70
2022-12-20T19:19:24.295Z,39.70
2022-12-20T19:21:52.714Z,36.93
2022-12-20T19:24:21.321Z,32.60
2022-12-20T19:26:49.670Z,30.77
2022-12-20T19:29:18.105Z,29.03
2022-12-20T19:31:48.269Z,29.30
2022-12-20T19:34:16.677Z,30.27
2022-12-20T19:36:46.448Z,31.80
2022-12-20T19:39:16.680Z,31.60
2022-12-20T19:42:07.510Z,32.27
2022-12-20T19:44:34.129Z,32.23
2022-12-20T19:47:07.264Z,32.50
2022-12-20T19:49:36.788Z,32.73
2022-12-20T19:52:06.113Z,37.47
2022-12-20T19:54:35.144Z,36.00
2022-12-20T19:57:03.641Z,39.83
2022-12-20T19:59:32.057Z,44.53
2022-12-20T20:02:00.598Z,41.53
2022-12-20T20:04:30.615Z,40.60
2022-12-20T20:06:59.004Z,43.50
2022-12-20T20:09:27.387Z,43.07
2022-12-20T20:11:55.785Z,43.17
2022-12-20T20:14:24.395Z,33.87
2022-12-20T20:16:53.019Z,35.60
2022-12-20T20:19:22.069Z,35.73
2022-12-20T20:21:52.161Z,30.30
2022-12-20T20:24:20.804Z,28.67
2022-12-20T20:26:49.124Z,24.03
2022-12-20T20:29:17.782Z,24.23
2022-12-20T20:31:46.846Z,21.80
2022-12-20T20:34:15.262Z,20.93
2022-12-20T20:36:43.769Z,22.43
2022-12-20T20:39:13.383Z,19.77
2022-12-20T20:41:42.876Z,21.53
2022-12-20T20:44:12.460Z,21.53
2022-12-20T20:46:41.011Z,22.60
2022-12-20T20:49:09.491Z,26.40
2022-12-20T20:51:38.016Z,25.37
2022-12-20T20:54:06.569Z,21.27
2022-12-20T20:56:36.263Z,20.00
2022-12-20T20:59:07.162Z,18.80
2022-12-20T21:01:39.464Z,20.70
2022-12-20T21:04:08.388Z,19.73
2022-12-20T21:06:40.883Z,19.40
2022-12-20T21:09:10.100Z,19.60
2022-12-20T21:11:40.310Z,19.50
2022-12-20T21:14:08.813Z,17.53
2022-12-20T21:16:37.301Z,17.97
2022-12-20T21:19:05.728Z,15.83
2022-12-20T21:21:34.159Z,15.20
2022-12-20T21:24:02.864Z,13.73
2022-12-20T21:26:31.635Z,12.40
2022-12-20T21:29:01.972Z,13.17
2022-12-20T21:31:30.851Z,12.13
2022-12-20T21:33:59.367Z,11.83
2022-12-20T21:36:27.811Z,11.10
2022-12-20T21:38:58.150Z,11.63
2022-12-20T21:41:28.189Z,12.03
2022-12-20T21:43:57.287Z,10.80
2022-12-20T21:46:28.056Z,11.13
2022-12-20T21:48:57.063Z,10.17
2022-12-20T21:51:27.286Z,11.53
2022-12-20T21:53:57.174Z,11.80
2022-12-20T21:56:27.355Z,11.67
2022-12-20T21:58:56.299Z,11.23
2022-12-20T22:01:27.809Z,12.40
2022-12-20T22:03:58.993Z,12.57
2022-12-20T22:06:28.224Z,10.70
2022-12-20T22:08:58.476Z,9.67
2022-12-20T22:11:27.027Z,10.07
2022-12-20T22:13:56.843Z,10.00
2022-12-20T22:16:29.255Z,9.77
2022-12-20T22:18:58.722Z,10.77
2022-12-20T22:21:29.394Z,10.60
2022-12-20T22:23:58.417Z,9.90
2022-12-20T22:26:28.409Z,10.40
2022-12-20T22:28:58.762Z,9.07
2022-12-20T22:31:28.795Z,9.40
2022-12-20T22:33:58.235Z,8.60
2022-12-20T22:36:27.429Z,9.17
2022-12-20T22:38:56.536Z,9.00
2022-12-20T22:41:26.731Z,9.53
2022-12-20T22:43:55.737Z,9.57
2022-12-20T22:46:24.332Z,9.80
2022-12-20T22:48:54.111Z,9.37
2022-12-20T22:51:25.420Z,9.40
2022-12-20T22:53:54.284Z,9.87
2022-12-20T22:56:22.825Z,10.23
2022-12-20T22:58:51.551Z,9.23
2022-12-20T23:01:21.757Z,9.97
2022-12-20T23:03:50.487Z,10.57
2022-12-20T23:06:21.553Z,9.83
2022-12-20T23:08:50.253Z,10.30
2022-12-20T23:11:38.653Z,11.00
2022-12-20T23:14:25.118Z,10.17
2022-12-20T23:16:53.600Z,11.10
2022-12-20T23:19:21.898Z,10.43
2022-12-20T23:22:09.383Z,10.90
2022-12-20T23:24:37.823Z,11.13
2022-12-20T23:27:06.491Z,11.90
2022-12-20T23:29:35.162Z,11.33
2022-12-20T23:32:03.522Z,12.93
2022-12-20T23:34:31.974Z,11.77
2022-12-20T23:37:01.749Z,12.17
2022-12-20T23:39:30.076Z,12.17
2022-12-20T23:41:58.640Z,12.93
2022-12-20T23:44:26.921Z,12.13
2022-12-20T23:46:55.218Z,12.70
2022-12-20T23:49:23.468Z,13.17
2022-12-20T23:51:52.264Z,13.43
2022-12-20T23:54:22.479Z,11.77
2022-12-20T23:56:50.915Z,12.43
2022-12-20T23:59:19.302Z,13.27
